sensor_id;sensor_type;location;lat;lon;timestamp;pressure;altitude;pressure_sealevel;temperature;humidity
7888;BME280;3989;48.810;9.208;2023-11-19T08:35:14;98634.53;;;12.22;100.00
7888;BME280;3989;48.810;9.208;2023-11-19T08:37:42;98646.63;;;12.39;100.00
7888;BME280;3989;48.810;9.208;2023-11-19T08:40:19;98587.31;;;12.07;100.00
7888;BME280;3989;48.810;9.208;2023-11-19T08:43:06;98579.94;;;12.37;100.00
7888;BME280;3989;48.810;9.208;2023-11-19T08:45:36;98650.19;;;13.01;100.00
7888;BME280;3989;48.810;9.208;2023-11-19T08:48:07;98549.16;;;12.54;100.00
7888;BME280;3989;48.810;9.208;2023-11-19T08:50:36;98518.56;;;12.36;100.00
7888;BME280;3989;48.810;9.208;2023-11-19T08:53:06;98648.81;;;13.12;100.00
7888;BME280;3989;48.810;9.208;2023-11-19T08:55:33;98537.94;;;12.38;100.00
7888;BME280;3989;48.810;9.208;2023-11-19T08:58:03;98582.22;;;12.40;100.00
7888;BME280;3989;48.810;9.208;2023-11-19T09:00:31;98663.63;;;12.80;100.00
7888;BME280;3989;48.810;9.208;2023-11-19T09:02:59;98538.56;;;12.12;100.00
7888;BME280;3989;48.810;9.208;2023-11-19T09:05:26;98545.19;;;12.16;100.00
7888;BME280;3989;48.810;9.208;2023-11-19T09:07:54;98549.59;;;12.24;100.00
7888;BME280;3989;48.810;9.208;2023-11-19T09:10:22;98564.00;;;12.29;100.00
7888;BME280;3989;48.810;9.208;2023-11-19T09:12:52;98475.88;;;11.93;100.00
7888;BME280;3989;48.810;9.208;2023-11-19T09:15:19;98487.59;;;12.20;100.00
7888;BME280;3989;48.810;9.208;2023-11-19T09:21:12;98676.09;;;13.70;100.00
7888;BME280;3989;48.810;9.208;2023-11-19T09:29:26;98669.84;;;13.56;100.00
7888;BME280;3989;48.810;9.208;2023-11-19T09:31:53;98494.94;;;12.39;100.00
7888;BME280;3989;48.810;9.208;2023-11-19T09:34:20;98567.19;;;12.74;100.00
7888;BME280;3989;48.810;9.208;2023-11-19T09:36:46;98601.19;;;12.80;100.00
7888;BME280;3989;48.810;9.208;2023-11-19T09:39:13;98591.06;;;12.69;100.00
7888;BME280;3989;48.810;9.208;2023-11-19T09:41:43;98600.44;;;12.86;100.00
7888;BME280;3989;48.810;9.208;2023-11-19T09:44:14;98590.44;;;13.07;100.00
7888;BME280;3989;48.810;9.208;2023-11-19T09:46:47;98594.75;;;13.49;100.00
7888;BME280;3989;48.810;9.208;2023-11-19T09:49:16;98597.31;;;13.84;100.00
7888;BME280;3989;48.810;9.208;2023-11-19T09:51:51;98516.22;;;13.68;100.00
7888;BME280;3989;48.810;9.208;2023-11-19T09:54:25;98675.00;;;14.57;100.00
7888;BME280;3989;48.810;9.208;2023-11-19T09:57:07;98513.53;;;13.68;100.00
7888;BME280;3989;48.810;9.208;2023-11-19T09:59:37;98672.75;;;14.81;100.00
7888;BME280;3989;48.810;9.208;2023-11-19T10:02:07;98492.09;;;13.88;100.00
7888;BME280;3989;48.810;9.208;2023-11-19T10:16:45;98677.75;;;15.54;100.00
7888;BME280;3989;48.810;9.208;2023-11-19T10:25:40;98660.66;;;15.80;100.00
7888;BME280;3989;48.810;9.208;2023-11-19T10:28:08;98556.53;;;15.05;100.00
7888;BME280;3989;48.810;9.208;2023-11-19T10:30:34;98598.63;;;15.31;100.00
7888;BME280;3989;48.810;9.208;2023-11-19T10:33:05;98667.59;;;15.63;100.00
7888;BME280;3989;48.810;9.208;2023-11-19T10:35:35;98669.66;;;15.61;100.00
7888;BME280;3989;48.810;9.208;2023-11-19T10:38:13;98501.47;;;14.69;100.00
7888;BME280;3989;48.810;9.208;2023-11-19T10:40:41;98507.09;;;14.55;100.00
7888;BME280;3989;48.810;9.208;2023-11-19T10:43:12;98556.38;;;14.87;100.00
7888;BME280;3989;48.810;9.208;2023-11-19T10:45:51;98549.16;;;14.87;100.00
7888;BME280;3989;48.810;9.208;2023-11-19T10:48:18;98620.75;;;15.26;100.00
7888;BME280;3989;48.810;9.208;2023-11-19T10:51:08;98473.44;;;14.46;100.00
7888;BME280;3989;48.810;9.208;2023-11-19T10:53:38;98469.31;;;14.50;100.00
7888;BME280;3989;48.810;9.208;2023-11-19T10:59:13;98606.25;;;15.34;100.00
7888;BME280;3989;48.810;9.208;2023-11-19T11:01:43;98595.50;;;15.34;100.00
7888;BME280;3989;48.810;9.208;2023-11-19T11:04:13;98508.03;;;14.80;100.00
7888;BME280;3989;48.810;9.208;2023-11-19T11:06:42;98650.41;;;15.64;100.00
7888;BME280;3989;48.810;9.208;2023-11-19T11:09:10;98555.81;;;15.22;100.00
7888;BME280;3989;48.810;9.208;2023-11-19T11:11:38;98540.59;;;15.10;100.00
7888;BME280;3989;48.810;9.208;2023-11-19T11:14:06;98542.00;;;15.12;100.00
7888;BME280;3989;48.810;9.208;2023-11-19T11:16:34;98591.16;;;15.33;100.00
7888;BME280;3989;48.810;9.208;2023-11-19T11:19:03;98591.91;;;15.46;100.00
7888;BME280;3989;48.810;9.208;2023-11-19T11:21:30;98613.41;;;15.59;100.00
7888;BME280;3989;48.810;9.208;2023-11-19T11:24:22;98595.19;;;15.61;100.00
7888;BME280;3989;48.810;9.208;2023-11-19T11:27:09;98482.25;;;14.73;100.00
7888;BME280;3989;48.810;9.208;2023-11-19T11:29:47;98591.13;;;15.39;100.00
7888;BME280;3989;48.810;9.208;2023-11-19T11:32:25;98613.97;;;15.68;100.00
7888;BME280;3989;48.810;9.208;2023-11-19T11:35:26;98616.97;;;15.53;100.00
7888;BME280;3989;48.810;9.208;2023-11-19T11:38:00;98613.69;;;15.32;100.00
7888;BME280;3989;48.810;9.208;2023-11-19T11:40:29;98636.22;;;15.37;100.00
7888;BME280;3989;48.810;9.208;2023-11-19T11:42:57;98618.94;;;15.13;100.00
7888;BME280;3989;48.810;9.208;2023-11-19T11:45:35;98556.78;;;14.84;100.00
7888;BME280;3989;48.810;9.208;2023-11-19T11:48:20;98579.28;;;15.02;100.00
7888;BME280;3989;48.810;9.208;2023-11-19T11:50:50;98579.91;;;14.98;100.00
7888;BME280;3989;48.810;9.208;2023-11-19T11:53:20;98632.75;;;15.30;100.00
7888;BME280;3989;48.810;9.208;2023-11-19T11:55:55;98622.47;;;15.07;100.00
7888;BME280;3989;48.810;9.208;2023-11-19T11:58:30;98484.19;;;14.33;100.00
7888;BME280;3989;48.810;9.208;2023-11-19T12:01:00;98454.94;;;14.05;100.00
7888;BME280;3989;48.810;9.208;2023-11-19T12:07:03;98600.53;;;15.17;100.00
7888;BME280;3989;48.810;9.208;2023-11-19T12:09:31;98580.84;;;15.23;100.00
7888;BME280;3989;48.810;9.208;2023-11-19T12:12:13;98567.81;;;15.27;100.00
7888;BME280;3989;48.810;9.208;2023-11-19T12:15:04;98586.75;;;15.45;100.00
7888;BME280;3989;48.810;9.208;2023-11-19T12:17:42;98566.31;;;15.37;100.00
7888;BME280;3989;48.810;9.208;2023-11-19T12:20:15;98583.47;;;15.81;100.00
7888;BME280;3989;48.810;9.208;2023-11-19T12:22:43;98575.66;;;16.04;100.00
7888;BME280;3989;48.810;9.208;2023-11-19T12:25:12;98439.06;;;15.43;100.00
7888;BME280;3989;48.810;9.208;2023-11-19T12:27:41;98418.97;;;15.46;100.00
7888;BME280;3989;48.810;9.208;2023-11-19T12:30:26;98427.28;;;15.44;100.00
7888;BME280;3989;48.810;9.208;2023-11-19T12:32:56;98539.06;;;15.96;100.00
7888;BME280;3989;48.810;9.208;2023-11-19T12:35:23;98524.75;;;16.02;100.00
7888;BME280;3989;48.810;9.208;2023-11-19T12:37:51;98563.81;;;16.11;100.00
7888;BME280;3989;48.810;9.208;2023-11-19T12:40:20;98558.81;;;16.15;100.00
7888;BME280;3989;48.810;9.208;2023-11-19T12:42:49;98462.44;;;15.43;100.00
7888;BME280;3989;48.810;9.208;2023-11-19T12:45:16;98431.72;;;15.25;100.00
7888;BME280;3989;48.810;9.208;2023-11-19T12:47:45;98502.84;;;15.67;100.00
7888;BME280;3989;48.810;9.208;2023-11-19T12:50:14;98557.06;;;16.02;100.00
7888;BME280;3989;48.810;9.208;2023-11-19T12:52:43;98485.94;;;15.60;100.00
7888;BME280;3989;48.810;9.208;2023-11-19T12:55:25;98397.66;;;14.88;100.00
7888;BME280;3989;48.810;9.208;2023-11-19T12:57:53;98550.53;;;15.85;100.00
7888;BME280;3989;48.810;9.208;2023-11-19T13:00:22;98493.88;;;15.49;100.00
7888;BME280;3989;48.810;9.208;2023-11-19T13:27:04;98462.66;;;15.41;100.00
7888;BME280;3989;48.810;9.208;2023-11-19T16:39:52;98565.91;;;12.07;100.00
7888;BME280;3989;48.810;9.208;2023-11-19T16:42:19;98544.91;;;12.04;100.00
7888;BME280;3989;48.810;9.208;2023-11-19T16:44:46;98521.25;;;11.80;100.00
7888;BME280;3989;48.810;9.208;2023-11-19T16:47:12;98421.81;;;11.00;100.00
7888;BME280;3989;48.810;9.208;2023-11-19T16:49:39;98543.94;;;11.70;100.00
7888;BME280;3989;48.810;9.208;2023-11-19T16:52:07;98570.41;;;11.65;100.00
7888;BME280;3989;48.810;9.208;2023-11-19T16:54:35;98503.00;;;11.05;100.00
7888;BME280;3989;48.810;9.208;2023-11-19T16:57:04;98418.41;;;10.20;100.00
7888;BME280;3989;48.810;9.208;2023-11-19T16:59:31;98569.06;;;11.18;100.00
7888;BME280;3989;48.810;9.208;2023-11-19T17:01:58;98503.84;;;10.56;100.00
7888;BME280;3989;48.810;9.208;2023-11-19T17:04:24;98557.34;;;10.83;100.00
7888;BME280;3989;48.810;9.208;2023-11-19T17:06:52;98584.81;;;10.92;100.00
7888;BME280;3989;48.810;9.208;2023-11-19T17:09:19;98529.66;;;10.70;100.00
7888;BME280;3989;48.810;9.208;2023-11-19T17:11:49;98521.72;;;10.76;100.00
7888;BME280;3989;48.810;9.208;2023-11-19T17:14:17;98488.81;;;10.54;100.00
7888;BME280;3989;48.810;9.208;2023-11-19T17:16:44;98538.50;;;10.85;100.00
7888;BME280;3989;48.810;9.208;2023-11-19T17:19:10;98565.06;;;10.93;100.00
7888;BME280;3989;48.810;9.208;2023-11-19T17:21:37;98591.47;;;11.17;100.00
7888;BME280;3989;48.810;9.208;2023-11-19T17:24:04;98578.16;;;10.88;100.00
7888;BME280;3989;48.810;9.208;2023-11-19T17:26:32;98523.59;;;10.32;100.00
7888;BME280;3989;48.810;9.208;2023-11-19T17:28:59;98563.53;;;10.40;100.00
7888;BME280;3989;48.810;9.208;2023-11-19T17:31:32;98602.00;;;10.60;100.00
7888;BME280;3989;48.810;9.208;2023-11-19T17:33:59;98437.72;;;9.55;100.00
7888;BME280;3989;48.810;9.208;2023-11-19T17:36:26;98583.22;;;10.68;100.00
7888;BME280;3989;48.810;9.208;2023-11-19T17:38:52;98446.22;;;9.88;100.00
7888;BME280;3989;48.810;9.208;2023-11-19T17:59:27;98335.66;;;9.40;100.00
7888;BME280;3989;48.810;9.208;2023-11-19T18:01:54;98583.31;;;11.04;100.00
7888;BME280;3989;48.810;9.208;2023-11-19T18:04:23;98543.38;;;10.81;100.00
7888;BME280;3989;48.810;9.208;2023-11-19T18:06:51;98582.75;;;11.44;100.00
7888;BME280;3989;48.810;9.208;2023-11-19T18:09:18;98509.28;;;10.98;100.00
7888;BME280;3989;48.810;9.208;2023-11-19T18:11:45;98573.28;;;11.63;100.00
7888;BME280;3989;48.810;9.208;2023-11-19T18:14:12;98506.84;;;11.39;100.00
7888;BME280;3989;48.810;9.208;2023-11-19T18:16:40;98590.97;;;12.28;100.00
7888;BME280;3989;48.810;9.208;2023-11-19T18:19:14;98491.00;;;11.80;100.00
7888;BME280;3989;48.810;9.208;2023-11-19T18:21:43;98442.91;;;11.37;100.00
7888;BME280;3989;48.810;9.208;2023-11-19T18:24:10;98601.72;;;12.34;100.00
7888;BME280;3989;48.810;9.208;2023-11-19T18:26:36;98537.59;;;11.92;100.00
7888;BME280;3989;48.810;9.208;2023-11-19T18:29:04;98565.03;;;12.00;100.00
7888;BME280;3989;48.810;9.208;2023-11-19T18:31:30;98603.31;;;12.29;100.00
7888;BME280;3989;48.810;9.208;2023-11-19T18:33:59;98574.22;;;12.19;100.00
7888;BME280;3989;48.810;9.208;2023-11-19T18:36:26;98595.06;;;12.24;100.00
7888;BME280;3989;48.810;9.208;2023-11-19T18:38:54;98556.16;;;12.00;100.00
7888;BME280;3989;48.810;9.208;2023-11-19T18:41:20;98492.22;;;11.56;100.00
7888;BME280;3989;48.810;9.208;2023-11-19T18:43:47;98562.19;;;12.08;100.00
7888;BME280;3989;48.810;9.208;2023-11-19T18:46:15;98621.09;;;12.36;100.00
7888;BME280;3989;48.810;9.208;2023-11-19T18:48:42;98570.72;;;11.91;100.00
7888;BME280;3989;48.810;9.208;2023-11-19T18:51:11;98609.44;;;12.23;100.00
7888;BME280;3989;48.810;9.208;2023-11-19T18:53:39;98569.38;;;12.01;100.00
7888;BME280;3989;48.810;9.208;2023-11-19T18:56:07;98527.66;;;11.65;100.00
7888;BME280;3989;48.810;9.208;2023-11-19T18:58:34;98537.59;;;11.71;100.00
7888;BME280;3989;48.810;9.208;2023-11-19T19:01:00;98564.06;;;11.87;100.00
7888;BME280;3989;48.810;9.208;2023-11-19T19:03:28;98613.78;;;12.02;100.00
7888;BME280;3989;48.810;9.208;2023-11-19T19:05:56;98642.25;;;12.10;100.00
7888;BME280;3989;48.810;9.208;2023-11-19T19:08:24;98605.09;;;11.73;100.00
7888;BME280;3989;48.810;9.208;2023-11-19T19:10:51;98527.16;;;11.33;100.00
7888;BME280;3989;48.810;9.208;2023-11-19T19:13:18;98576.63;;;11.50;100.00
7888;BME280;3989;48.810;9.208;2023-11-19T19:15:44;98561.25;;;11.52;100.00
7888;BME280;3989;48.810;9.208;2023-11-19T19:18:11;98561.25;;;11.52;100.00
7888;BME280;3989;48.810;9.208;2023-11-19T19:20:38;98607.06;;;11.85;100.00
7888;BME280;3989;48.810;9.208;2023-11-19T19:23:05;98588.44;;;11.56;100.00
7888;BME280;3989;48.810;9.208;2023-11-19T19:25:33;98648.56;;;11.81;100.00
7888;BME280;3989;48.810;9.208;2023-11-19T19:28:00;98581.13;;;11.29;100.00
7888;BME280;3989;48.810;9.208;2023-11-19T19:30:27;98641.97;;;11.63;100.00
7888;BME280;3989;48.810;9.208;2023-11-19T19:32:54;98653.34;;;11.50;100.00
7888;BME280;3989;48.810;9.208;2023-11-19T19:35:21;98500.34;;;10.55;100.00
7888;BME280;3989;48.810;9.208;2023-11-19T19:37:53;98532.25;;;10.63;100.00
7888;BME280;3989;48.810;9.208;2023-11-19T19:40:21;98672.47;;;11.53;100.00
7888;BME280;3989;48.810;9.208;2023-11-19T19:42:51;98624.66;;;10.93;100.00
7888;BME280;3989;48.810;9.208;2023-11-19T19:45:17;98625.47;;;10.94;100.00
7888;BME280;3989;48.810;9.208;2023-11-19T19:47:44;98687.25;;;11.20;100.00
7888;BME280;3989;48.810;9.208;2023-11-19T19:50:12;98494.09;;;9.96;100.00
7888;BME280;3989;48.810;9.208;2023-11-19T19:52:39;98639.91;;;10.70;100.00
7888;BME280;3989;48.810;9.208;2023-11-19T19:55:09;98521.09;;;9.78;100.00
7888;BME280;3989;48.810;9.208;2023-11-19T19:57:36;98685.03;;;10.80;100.00
7888;BME280;3989;48.810;9.208;2023-11-19T20:00:22;98562.53;;;10.03;100.00
7888;BME280;3989;48.810;9.208;2023-11-19T20:05:27;98506.22;;;9.69;100.00
7888;BME280;3989;48.810;9.208;2023-11-19T20:31:16;98690.19;;;10.44;100.00
7888;BME280;3989;48.810;9.208;2023-11-19T20:33:44;98595.38;;;9.81;100.00
7888;BME280;3989;48.810;9.208;2023-11-19T20:36:13;98689.81;;;10.32;100.00
7888;BME280;3989;48.810;9.208;2023-11-19T20:42:05;98449.31;;;8.71;100.00
7888;BME280;3989;48.810;9.208;2023-11-19T20:44:35;98616.44;;;9.68;100.00
7888;BME280;3989;48.810;9.208;2023-11-19T20:47:32;98414.91;;;8.39;100.00
7888;BME280;3989;48.810;9.208;2023-11-19T20:53:21;98622.25;;;9.94;100.00
7888;BME280;3989;48.810;9.208;2023-11-19T20:55:49;98634.94;;;10.15;100.00
7888;BME280;3989;48.810;9.208;2023-11-19T20:58:16;98693.91;;;10.43;100.00
7888;BME280;3989;48.810;9.208;2023-11-19T21:03:21;98682.50;;;10.49;100.00
7888;BME280;3989;48.810;9.208;2023-11-19T21:09:12;98680.78;;;10.56;100.00
7888;BME280;3989;48.810;9.208;2023-11-19T21:11:53;98524.28;;;9.74;100.00
7888;BME280;3989;48.810;9.208;2023-11-19T21:16:55;98618.03;;;10.00;100.00
7888;BME280;3989;48.810;9.208;2023-11-19T21:19:42;98490.16;;;9.09;100.00
7888;BME280;3989;48.810;9.208;2023-11-19T21:22:17;98608.34;;;9.84;100.00
7888;BME280;3989;48.810;9.208;2023-11-19T21:25:08;98649.69;;;10.26;100.00
7888;BME280;3989;48.810;9.208;2023-11-19T21:27:41;98531.28;;;9.75;100.00
7888;BME280;3989;48.810;9.208;2023-11-19T21:30:18;98684.97;;;10.50;100.00
7888;BME280;3989;48.810;9.208;2023-11-19T21:32:49;98680.56;;;10.43;100.00
7888;BME280;3989;48.810;9.208;2023-11-19T21:35:23;98565.63;;;9.70;100.00
7888;BME280;3989;48.810;9.208;2023-11-19T21:37:52;98465.97;;;9.19;100.00
7888;BME280;3989;48.810;9.208;2023-11-19T21:40:20;98431.06;;;8.91;100.00
7888;BME280;3989;48.810;9.208;2023-11-19T21:42:47;98442.31;;;9.24;100.00
7888;BME280;3989;48.810;9.208;2023-11-19T21:45:17;98548.97;;;9.90;100.00
7888;BME280;3989;48.810;9.208;2023-11-19T21:47:45;98602.50;;;10.03;100.00
7888;BME280;3989;48.810;9.208;2023-11-19T21:50:13;98625.53;;;10.42;100.00
7888;BME280;3989;48.810;9.208;2023-11-19T21:52:48;98418.84;;;9.42;100.00
7888;BME280;3989;48.810;9.208;2023-11-19T21:55:15;98639.38;;;10.75;100.00
7888;BME280;3989;48.810;9.208;2023-11-19T21:57:42;98491.22;;;9.83;100.00
7888;BME280;3989;48.810;9.208;2023-11-19T22:00:12;98585.63;;;10.34;100.00
7888;BME280;3989;48.810;9.208;2023-11-19T22:02:40;98401.78;;;9.36;100.00
7888;BME280;3989;48.810;9.208;2023-11-19T22:05:10;98697.19;;;10.97;100.00
7888;BME280;3989;48.810;9.208;2023-11-19T22:08:08;98434.22;;;9.17;100.00
7888;BME280;3989;48.810;9.208;2023-11-19T22:11:10;98425.28;;;9.10;100.00
7888;BME280;3989;48.810;9.208;2023-11-19T22:13:51;98614.06;;;10.19;100.00
7888;BME280;3989;48.810;9.208;2023-11-19T22:16:19;98678.28;;;10.54;100.00
7888;BME280;3989;48.810;9.208;2023-11-19T22:18:46;98592.56;;;10.20;100.00
7888;BME280;3989;48.810;9.208;2023-11-19T22:21:13;98538.97;;;9.70;100.00
7888;BME280;3989;48.810;9.208;2023-11-19T22:23:42;98503.78;;;9.14;100.00
7888;BME280;3989;48.810;9.208;2023-11-19T22:26:09;98653.22;;;9.73;100.00
7888;BME280;3989;48.810;9.208;2023-11-19T22:28:37;98633.41;;;9.44;100.00
7888;BME280;3989;48.810;9.208;2023-11-19T22:31:06;98660.00;;;9.53;100.00
7888;BME280;3989;48.810;9.208;2023-11-19T22:33:32;98566.13;;;8.89;100.00
7888;BME280;3989;48.810;9.208;2023-11-19T22:36:00;98671.50;;;9.14;100.00
7888;BME280;3989;48.810;9.208;2023-11-19T22:38:27;98592.72;;;8.42;100.00
7888;BME280;3989;48.810;9.208;2023-11-19T22:41:05;98554.22;;;8.14;100.00
7888;BME280;3989;48.810;9.208;2023-11-19T22:43:32;98630.47;;;8.29;100.00
7888;BME280;3989;48.810;9.208;2023-11-19T22:46:01;98647.03;;;8.72;100.00
7888;BME280;3989;48.810;9.208;2023-11-19T22:48:32;98527.81;;;7.96;100.00
7888;BME280;3989;48.810;9.208;2023-11-19T22:51:02;98453.00;;;7.52;100.00
7888;BME280;3989;48.810;9.208;2023-11-19T22:53:43;98450.19;;;7.29;100.00
7888;BME280;3989;48.810;9.208;2023-11-19T22:56:12;98391.81;;;6.81;100.00
7888;BME280;3989;48.810;9.208;2023-11-19T22:58:45;98647.91;;;8.32;100.00
7888;BME280;3989;48.810;9.208;2023-11-19T23:01:15;98466.44;;;7.51;100.00
7888;BME280;3989;48.810;9.208;2023-11-19T23:03:43;98447.19;;;7.32;100.00
7888;BME280;3989;48.810;9.208;2023-11-19T23:06:18;98720.56;;;9.20;100.00
7888;BME280;3989;48.810;9.208;2023-11-19T23:08:46;98574.75;;;8.52;100.00
7888;BME280;3989;48.810;9.208;2023-11-19T23:11:29;98466.25;;;7.60;100.00
7888;BME280;3989;48.810;9.208;2023-11-19T23:14:04;98440.41;;;7.46;100.00
7888;BME280;3989;48.810;9.208;2023-11-19T23:16:36;98444.50;;;7.81;100.00
7888;BME280;3989;48.810;9.208;2023-11-19T23:19:07;98413.66;;;7.56;100.00
7888;BME280;3989;48.810;9.208;2023-11-19T23:21:37;98389.78;;;8.03;100.00
7888;BME280;3989;48.810;9.208;2023-11-19T23:24:10;98673.50;;;10.05;100.00
7888;BME280;3989;48.810;9.208;2023-11-19T23:26:39;98382.03;;;8.40;100.00
7888;BME280;3989;48.810;9.208;2023-11-19T23:29:07;98413.75;;;8.72;100.00
7888;BME280;3989;48.810;9.208;2023-11-19T23:31:34;98702.63;;;10.14;100.00
7888;BME280;3989;48.810;9.208;2023-11-19T23:34:01;98518.44;;;8.79;100.00
7888;BME280;3989;48.810;9.208;2023-11-19T23:36:28;98631.78;;;9.35;100.00
7888;BME280;3989;48.810;9.208;2023-11-19T23:39:00;98450.81;;;8.43;100.00
7888;BME280;3989;48.810;9.208;2023-11-19T23:41:27;98590.19;;;9.57;100.00
7888;BME280;3989;48.810;9.208;2023-11-19T23:44:08;98405.97;;;8.32;100.00
7888;BME280;3989;48.810;9.208;2023-11-19T23:46:52;98435.22;;;8.24;100.00
7888;BME280;3989;48.810;9.208;2023-11-19T23:49:49;98438.91;;;8.15;100.00
7888;BME280;3989;48.810;9.208;2023-11-19T23:52:16;98558.47;;;8.94;100.00
7888;BME280;3989;48.810;9.208;2023-11-19T23:54:57;98524.56;;;8.88;100.00
7888;BME280;3989;48.810;9.208;2023-11-19T23:57:38;98604.00;;;9.83;100.00
